createdAt,value
2022-11-02T00:02:17.396Z,6.39
2022-11-02T00:04:43.932Z,6.47
2022-11-02T00:07:10.385Z,6.53
2022-11-02T00:09:37.450Z,6.46
2022-11-02T00:12:04.079Z,6.83
2022-11-02T00:14:37.662Z,6.60
2022-11-02T00:17:04.126Z,6.75
2022-11-02T00:19:30.788Z,6.66
2022-11-02T00:21:58.834Z,6.47
2022-11-02T00:24:25.560Z,6.59
2022-11-02T00:26:53.112Z,6.62
2022-11-02T00:29:20.847Z,6.36
2022-11-02T00:31:47.250Z,6.25
2022-11-02T00:34:13.639Z,6.09
2022-11-02T00:36:40.057Z,6.33
2022-11-02T00:39:06.457Z,6.17
2022-11-02T00:41:32.838Z,6.25
2022-11-02T00:43:59.231Z,6.25
2022-11-02T00:46:25.629Z,6.12
2022-11-02T00:48:52.077Z,6.11
2022-11-02T00:51:18.469Z,6.38
2022-11-02T00:53:44.859Z,6.09
2022-11-02T00:56:11.266Z,6.03
2022-11-02T00:58:37.789Z,5.57
2022-11-02T01:01:05.931Z,5.89
2022-11-02T01:03:32.402Z,5.98
2022-11-02T01:05:58.974Z,6.23
2022-11-02T01:08:25.379Z,6.02
2022-11-02T01:10:51.777Z,6.38
2022-11-02T01:13:18.193Z,5.93
2022-11-02T01:15:44.619Z,5.75
2022-11-02T01:18:11.208Z,5.87
2022-11-02T01:20:37.602Z,5.73
2022-11-02T01:23:04.032Z,5.78
2022-11-02T01:25:30.423Z,5.65
2022-11-02T01:27:57.193Z,5.58
2022-11-02T01:30:23.592Z,5.66
2022-11-02T01:32:49.969Z,5.67
2022-11-02T01:35:16.845Z,5.82
2022-11-02T01:37:45.348Z,5.81
2022-11-02T01:40:11.923Z,6.04
2022-11-02T01:42:38.339Z,5.97
2022-11-02T01:45:05.119Z,6.15
2022-11-02T01:47:37.963Z,6.33
2022-11-02T01:50:16.416Z,6.35
2022-11-02T01:52:42.871Z,6.59
2022-11-02T01:55:19.300Z,6.55
2022-11-02T01:57:47.721Z,6.70
2022-11-02T02:00:16.687Z,6.76
2022-11-02T02:02:49.189Z,6.93
2022-11-02T02:05:17.665Z,7.07
2022-11-02T02:07:45.085Z,6.91
2022-11-02T02:10:11.864Z,6.67
2022-11-02T02:12:41.119Z,7.16
2022-11-02T02:15:08.592Z,7.27
2022-11-02T02:17:44.016Z,7.29
2022-11-02T02:20:20.294Z,6.83
2022-11-02T02:23:14.677Z,7.28
2022-11-02T02:25:56.325Z,7.14
2022-11-02T02:28:51.974Z,7.30
2022-11-02T02:31:35.089Z,6.93
2022-11-02T02:34:20.986Z,6.97
2022-11-02T02:36:52.081Z,7.15
2022-11-02T02:39:21.526Z,7.42
2022-11-02T02:42:26.617Z,7.33
2022-11-02T02:45:12.115Z,7.30
2022-11-02T02:47:46.553Z,7.20
2022-11-02T02:50:27.679Z,7.44
2022-11-02T02:52:56.930Z,7.32
2022-11-02T02:55:31.180Z,7.49
2022-11-02T02:58:00.761Z,7.50
2022-11-02T03:00:27.314Z,7.97
2022-11-02T03:03:01.562Z,7.64
2022-11-02T03:05:30.338Z,7.97
2022-11-02T03:08:03.053Z,7.62
2022-11-02T03:10:34.572Z,7.54
2022-11-02T03:13:28.870Z,7.67
2022-11-02T03:16:03.270Z,7.62
2022-11-02T03:18:38.531Z,7.72
2022-11-02T03:21:27.821Z,7.64
2022-11-02T03:24:19.042Z,7.88
2022-11-02T03:26:57.540Z,7.95
2022-11-02T03:29:29.685Z,7.91
2022-11-02T03:32:11.142Z,7.95
2022-11-02T03:34:41.396Z,8.03
2022-11-02T03:37:26.192Z,7.96
2022-11-02T03:39:58.894Z,7.86
2022-11-02T03:42:27.816Z,8.01
2022-11-02T03:44:59.567Z,8.01
2022-11-02T03:47:30.923Z,8.01
2022-11-02T03:50:00.509Z,7.98
2022-11-02T03:52:30.413Z,8.06
2022-11-02T03:55:18.073Z,8.33
2022-11-02T03:57:47.638Z,8.23
2022-11-02T04:00:25.652Z,8.23
2022-11-02T04:02:58.772Z,8.46
2022-11-02T04:05:34.154Z,8.48
2022-11-02T04:08:19.766Z,8.57
2022-11-02T04:11:06.133Z,8.74
2022-11-02T04:13:51.476Z,9.19
2022-11-02T04:16:21.285Z,9.49
2022-11-02T04:19:15.797Z,9.55
2022-11-02T04:22:02.170Z,9.56
2022-11-02T04:24:46.936Z,9.88
2022-11-02T04:27:16.735Z,9.93
2022-11-02T04:29:46.130Z,10.05
2022-11-02T04:32:12.542Z,9.84
2022-11-02T04:34:38.930Z,10.12
2022-11-02T04:37:25.356Z,9.84
2022-11-02T04:39:51.740Z,10.20
2022-11-02T04:42:18.146Z,10.43
2022-11-02T04:44:44.552Z,10.29
2022-11-02T04:47:10.941Z,10.47
2022-11-02T04:49:37.324Z,10.11
2022-11-02T04:52:03.878Z,10.51
2022-11-02T04:54:37.250Z,10.72
2022-11-02T04:57:03.748Z,10.37
2022-11-02T04:59:30.170Z,10.23
2022-11-02T05:01:56.658Z,10.47
2022-11-02T05:04:23.137Z,10.41
2022-11-02T05:06:49.543Z,10.34
2022-11-02T05:09:16.035Z,10.55
2022-11-02T05:11:42.926Z,10.23
2022-11-02T05:14:09.298Z,10.66
2022-11-02T05:16:35.698Z,10.14
2022-11-02T05:19:04.497Z,10.59
2022-11-02T05:21:33.377Z,10.37
2022-11-02T05:23:59.879Z,10.50
2022-11-02T05:26:26.317Z,10.58
2022-11-02T05:28:52.705Z,10.49
2022-11-02T05:31:19.115Z,10.48
2022-11-02T05:33:45.647Z,10.41
2022-11-02T05:36:12.752Z,10.79
2022-11-02T05:41:10.979Z,10.85
2022-11-02T05:43:37.954Z,10.76
2022-11-02T05:46:04.928Z,10.92
2022-11-02T05:48:32.904Z,10.48
2022-11-02T05:51:01.718Z,10.61
2022-11-02T05:53:31.642Z,10.94
2022-11-02T05:55:59.143Z,10.72
2022-11-02T05:58:26.070Z,11.15
2022-11-02T06:00:52.555Z,10.87
2022-11-02T06:03:20.361Z,11.06
2022-11-02T06:05:46.836Z,10.69
2022-11-02T06:08:13.299Z,10.98
2022-11-02T06:10:42.831Z,10.77
2022-11-02T06:13:09.808Z,10.81
2022-11-02T06:15:36.204Z,10.34
2022-11-02T06:18:03.773Z,10.99
2022-11-02T06:20:30.184Z,11.16
2022-11-02T06:22:56.707Z,11.20
2022-11-02T06:25:23.185Z,11.27
2022-11-02T06:27:56.112Z,11.46
2022-11-02T06:30:26.284Z,11.50
2022-11-02T06:32:53.963Z,11.39
2022-11-02T06:35:21.903Z,11.19
2022-11-02T06:37:48.534Z,11.12
2022-11-02T06:40:15.451Z,10.79
2022-11-02T06:42:45.342Z,10.79
2022-11-02T06:45:17.202Z,11.18
2022-11-02T06:47:49.054Z,11.19
2022-11-02T06:50:15.580Z,11.02
2022-11-02T06:52:48.017Z,11.25
2022-11-02T06:55:15.654Z,11.39
2022-11-02T06:57:43.046Z,11.43
2022-11-02T07:00:14.532Z,11.52
2022-11-02T07:02:46.430Z,11.72
2022-11-02T07:05:13.537Z,11.61
2022-11-02T07:07:39.931Z,11.32
2022-11-02T07:10:10.089Z,11.15
2022-11-02T07:12:36.755Z,11.04
2022-11-02T07:15:03.278Z,11.03
2022-11-02T07:17:32.154Z,11.16
2022-11-02T07:19:58.974Z,11.18
2022-11-02T07:22:25.438Z,11.06
2022-11-02T07:24:51.991Z,11.21
2022-11-02T07:27:19.558Z,10.84
2022-11-02T07:29:45.968Z,10.84
2022-11-02T07:32:12.371Z,11.42
2022-11-02T07:34:38.762Z,11.28
2022-11-02T07:37:05.152Z,11.32
2022-11-02T07:39:31.646Z,11.42
2022-11-02T07:41:58.287Z,11.45
2022-11-02T07:44:24.772Z,11.16
2022-11-02T07:46:51.186Z,11.21
2022-11-02T07:49:21.492Z,11.23
2022-11-02T07:51:48.367Z,11.65
2022-11-02T07:54:14.756Z,11.62
2022-11-02T07:56:41.134Z,11.45
2022-11-02T07:59:10.485Z,11.58
2022-11-02T08:01:44.168Z,11.49
2022-11-02T08:04:10.630Z,11.33
2022-11-02T08:06:37.041Z,11.59
2022-11-02T08:09:03.506Z,11.50
2022-11-02T08:11:30.220Z,11.36
2022-11-02T08:13:56.677Z,12.05
2022-11-02T08:16:23.091Z,12.01
2022-11-02T08:18:49.515Z,11.54
2022-11-02T08:21:16.955Z,11.47
2022-11-02T08:23:43.421Z,11.46
2022-11-02T08:26:09.892Z,11.83
2022-11-02T08:28:39.942Z,12.06
2022-11-02T08:31:09.950Z,12.36
2022-11-02T08:33:36.394Z,12.06
2022-11-02T08:36:04.259Z,12.20
2022-11-02T08:38:31.409Z,12.48
2022-11-02T08:40:58.059Z,11.97
2022-11-02T08:43:24.494Z,12.16
2022-11-02T08:48:37.540Z,12.33
2022-11-02T08:51:05.596Z,12.47
2022-11-02T08:53:32.244Z,12.51
2022-11-02T08:55:59.327Z,12.30
2022-11-02T08:58:26.283Z,12.28
2022-11-02T09:00:53.684Z,12.03
2022-11-02T09:03:26.211Z,11.89
2022-11-02T09:05:58.750Z,12.33
2022-11-02T09:08:26.136Z,12.30
2022-11-02T09:10:53.075Z,11.86
2022-11-02T09:13:25.170Z,12.22
2022-11-02T09:15:56.842Z,11.96
2022-11-02T09:18:24.541Z,12.12
2022-11-02T09:20:51.459Z,12.04
2022-11-02T09:23:19.545Z,12.31
2022-11-02T09:25:46.011Z,12.43
2022-11-02T09:28:15.028Z,12.38
2022-11-02T09:30:42.002Z,12.48
2022-11-02T09:33:08.886Z,12.15
2022-11-02T09:35:38.359Z,12.26
2022-11-02T09:38:05.214Z,12.08
2022-11-02T09:40:38.910Z,12.14
2022-11-02T09:43:08.537Z,12.31
2022-11-02T09:45:46.611Z,12.31
2022-11-02T09:48:28.047Z,11.61
2022-11-02T09:51:07.920Z,12.05
2022-11-02T09:54:06.697Z,11.99
2022-11-02T09:56:34.600Z,12.30
2022-11-02T09:59:03.299Z,12.25
2022-11-02T10:01:55.497Z,12.27
2022-11-02T10:04:59.754Z,12.11
2022-11-02T10:07:32.834Z,12.25
2022-11-02T10:10:11.213Z,12.34
2022-11-02T10:12:54.358Z,12.40
2022-11-02T10:15:28.754Z,12.49
2022-11-02T10:17:58.789Z,12.52
2022-11-02T10:20:33.044Z,12.50
2022-11-02T10:23:05.024Z,12.29
2022-11-02T10:25:31.714Z,12.25
2022-11-02T10:28:11.495Z,12.19
2022-11-02T10:30:38.587Z,12.58
2022-11-02T10:33:15.895Z,12.18
2022-11-02T10:38:53.782Z,12.02
2022-11-02T10:41:49.674Z,12.55
2022-11-02T10:44:25.126Z,12.51
2022-11-02T10:47:04.090Z,11.94
2022-11-02T10:49:49.178Z,12.71
2022-11-02T10:52:17.837Z,11.85
2022-11-02T10:54:44.484Z,12.04
2022-11-02T10:57:13.315Z,12.49
2022-11-02T10:59:40.236Z,12.05
2022-11-02T11:02:14.760Z,12.37
2022-11-02T11:04:42.413Z,12.59
2022-11-02T11:07:20.919Z,12.49
2022-11-02T11:09:53.985Z,12.16
2022-11-02T11:12:32.577Z,12.61
2022-11-02T11:20:37.252Z,12.08
2022-11-02T11:23:10.290Z,12.06
2022-11-02T11:25:42.733Z,11.93
2022-11-02T11:28:30.786Z,12.30
2022-11-02T11:31:10.244Z,12.35
2022-11-02T11:33:55.538Z,12.09
2022-11-02T11:36:32.904Z,12.14
2022-11-02T11:39:04.195Z,12.36
2022-11-02T11:41:32.720Z,12.17
2022-11-02T11:44:01.293Z,12.25
2022-11-02T11:46:52.433Z,12.43
2022-11-02T11:50:07.180Z,12.32
2022-11-02T11:52:31.683Z,11.84
2022-11-02T11:55:28.311Z,12.32
2022-11-02T11:58:15.481Z,12.25
2022-11-02T12:00:42.321Z,12.08
2022-11-02T12:03:11.847Z,12.30
2022-11-02T12:06:03.047Z,12.37
2022-11-02T12:08:44.106Z,12.48
2022-11-02T12:11:25.890Z,12.47
2022-11-02T12:14:31.088Z,12.66
2022-11-02T12:17:11.077Z,12.86
2022-11-02T12:20:05.154Z,13.00
2022-11-02T12:22:57.864Z,13.01
2022-11-02T12:25:50.658Z,12.88
2022-11-02T12:28:51.795Z,12.84
2022-11-02T12:31:37.344Z,12.71
2022-11-02T12:34:26.601Z,12.77
2022-11-02T12:37:40.457Z,12.80
2022-11-02T12:40:28.471Z,12.72
2022-11-02T12:43:23.066Z,12.55
2022-11-02T12:46:00.058Z,12.34
2022-11-02T12:49:08.403Z,12.46
2022-11-02T12:51:44.198Z,11.95
2022-11-02T12:54:15.593Z,12.06
2022-11-02T12:56:57.841Z,12.12
2022-11-02T12:59:42.208Z,12.19
2022-11-02T13:02:52.279Z,12.22
2022-11-02T13:05:22.262Z,11.79
2022-11-02T13:07:57.617Z,11.78
2022-11-02T13:10:30.718Z,11.49
2022-11-02T13:12:59.837Z,11.90
2022-11-02T13:15:29.234Z,12.03
2022-11-02T13:18:19.612Z,11.91
2022-11-02T13:20:52.136Z,11.88
2022-11-02T13:23:26.354Z,12.13
2022-11-02T13:25:58.373Z,12.16
2022-11-02T13:28:35.750Z,12.41
2022-11-02T13:31:12.804Z,12.04
2022-11-02T13:33:53.420Z,12.03
2022-11-02T13:36:31.215Z,12.13
2022-11-02T13:39:15.943Z,12.31
2022-11-02T13:42:05.288Z,12.27
2022-11-02T13:45:15.177Z,12.19
2022-11-02T13:47:48.276Z,12.24
2022-11-02T13:50:20.185Z,12.45
2022-11-02T13:52:54.736Z,12.67
2022-11-02T13:55:41.320Z,12.20
2022-11-02T13:58:23.861Z,12.06
2022-11-02T14:00:51.875Z,12.17
2022-11-02T14:03:28.033Z,12.52
2022-11-02T14:06:00.425Z,12.44
2022-11-02T14:08:40.809Z,12.59
2022-11-02T14:11:10.352Z,12.85
2022-11-02T14:13:54.314Z,12.69
2022-11-02T14:16:50.269Z,12.59
2022-11-02T14:19:31.906Z,12.64
2022-11-02T14:22:16.798Z,12.82
2022-11-02T14:24:48.197Z,12.35
2022-11-02T14:27:19.066Z,12.50
2022-11-02T14:29:45.408Z,12.56
2022-11-02T14:32:40.990Z,12.63
2022-11-02T14:35:13.624Z,12.80
2022-11-02T14:38:03.190Z,12.85
2022-11-02T14:40:48.575Z,12.63
2022-11-02T14:43:48.955Z,12.48
2022-11-02T14:46:57.356Z,12.51
2022-11-02T14:49:36.865Z,12.31
2022-11-02T14:52:18.067Z,12.55
2022-11-02T14:54:50.435Z,12.43
2022-11-02T14:57:27.530Z,12.30
2022-11-02T14:59:57.714Z,12.27
2022-11-02T15:02:45.741Z,12.38
2022-11-02T15:05:24.255Z,12.22
2022-11-02T15:08:27.736Z,12.25
2022-11-02T15:10:54.401Z,12.33
2022-11-02T15:13:20.813Z,12.14
2022-11-02T21:05:37.990Z,3.32
2022-11-02T21:08:11.324Z,3.42
2022-11-02T21:10:38.136Z,3.53
2022-11-02T21:13:23.676Z,3.28
2022-11-02T21:15:56.729Z,3.47
2022-11-02T21:18:23.197Z,3.43
2022-11-02T21:20:49.604Z,3.57
2022-11-02T21:23:16.043Z,3.56
2022-11-02T21:25:42.452Z,3.42
2022-11-02T21:31:08.845Z,3.42
2022-11-02T21:33:35.573Z,3.42
2022-11-02T21:36:02.211Z,3.57
2022-11-02T21:38:29.411Z,3.45
2022-11-02T21:40:59.429Z,3.43
2022-11-02T21:43:26.613Z,3.35
2022-11-02T21:46:01.280Z,3.25
2022-11-02T21:48:31.684Z,3.20
2022-11-02T21:51:05.879Z,3.21
2022-11-02T21:53:33.862Z,3.17
2022-11-02T21:56:10.998Z,3.20
2022-11-02T21:58:43.031Z,3.08
2022-11-02T22:01:34.655Z,3.18
2022-11-02T22:04:01.658Z,2.98
2022-11-02T22:06:31.340Z,3.04
2022-11-02T22:08:59.142Z,2.91
2022-11-02T22:11:28.866Z,3.10
2022-11-02T22:13:58.006Z,3.20
2022-11-02T22:16:25.979Z,3.17
2022-11-02T22:18:55.246Z,2.85
2022-11-02T22:21:29.568Z,3.07
2022-11-02T22:23:56.603Z,2.92
2022-11-02T22:26:30.224Z,3.06
2022-11-02T22:28:57.984Z,3.03
2022-11-02T22:31:27.198Z,2.88
2022-11-02T22:33:55.741Z,2.87
2022-11-02T22:36:25.098Z,2.65
2022-11-02T22:38:53.592Z,2.61
2022-11-02T22:41:31.484Z,2.56
2022-11-02T22:44:03.695Z,2.70
2022-11-02T22:46:32.011Z,2.82
2022-11-02T22:49:00.135Z,2.81
2022-11-02T22:51:28.296Z,2.61
2022-11-02T22:53:55.143Z,2.71
2022-11-02T22:56:22.987Z,2.83
2022-11-02T22:58:50.265Z,2.35
2022-11-02T23:01:19.121Z,2.81
2022-11-02T23:03:46.893Z,2.80
2022-11-02T23:06:14.225Z,2.61
2022-11-02T23:08:43.101Z,2.71
2022-11-02T23:11:22.716Z,2.65
2022-11-02T23:14:01.292Z,2.64
2022-11-02T23:16:40.811Z,2.56
2022-11-02T23:19:29.636Z,2.58
2022-11-02T23:22:22.797Z,2.60
2022-11-02T23:25:09.254Z,2.65
2022-11-02T23:27:59.971Z,2.69
2022-11-02T23:30:48.438Z,2.71
2022-11-02T23:33:15.525Z,2.67
2022-11-02T23:36:01.101Z,2.71
2022-11-02T23:38:45.739Z,2.72
2022-11-02T23:41:12.152Z,2.71
2022-11-02T23:43:38.536Z,2.83
2022-11-02T23:46:05.125Z,2.60
2022-11-02T23:48:31.557Z,2.59
2022-11-02T23:51:16.517Z,2.74
2022-11-02T23:54:01.418Z,2.70
2022-11-02T23:56:43.210Z,2.75
2022-11-02T23:59:10.666Z,2.65
